TimeCDT,TemperatureF,Dew PointF,Humidity,Sea Level PressureIn,VisibilityMPH,Wind Direction,Wind SpeedMPH,Gust SpeedMPH,PrecipitationIn,Events,Conditions,WindDirDegrees,DateUTC
12:15 AM,50.0,46.4,87,29.97,10.0,ENE,9.2,-,0.01,Thunderstorm,Overcast,60,2013-04-09 05:15:00
12:35 AM,50.0,46.4,87,29.97,10.0,ENE,8.1,-,0.01,Thunderstorm,Thunderstorm,70,2013-04-09 05:35:00
12:55 AM,50.0,46.4,87,29.97,10.0,East,9.2,-,0.01,Thunderstorm,Thunderstorm,80,2013-04-09 05:55:00
1:15 AM,50.2,46.6,87,29.96,10.0,East,6.9,-,N/A,Thunderstorm,Overcast,90,2013-04-09 06:15:00
1:35 AM,50.2,46.4,87,29.96,10.0,East,9.2,-,N/A,Thunderstorm,Overcast,90,2013-04-09 06:35:00
1:55 AM,50.4,45.9,85,29.95,10.0,East,10.4,-,N/A,Thunderstorm,Thunderstorm,90,2013-04-09 06:55:00
2:15 AM,50.2,45.7,85,29.95,10.0,ENE,6.9,-,N/A,Thunderstorm,Clear,70,2013-04-09 07:15:00
2:35 AM,49.3,45.7,87,29.94,10.0,ENE,8.1,-,N/A,Thunderstorm,Clear,70,2013-04-09 07:35:00
2:55 AM,50.0,45.9,86,29.94,10.0,East,9.2,-,N/A,,Mostly Cloudy,80,2013-04-09 07:55:00
3:15 AM,50.5,45.9,84,29.94,10.0,East,9.2,-,N/A,,Mostly Cloudy,80,2013-04-09 08:15:00
3:35 AM,50.0,45.7,85,29.94,10.0,ENE,6.9,-,N/A,,Mostly Cloudy,70,2013-04-09 08:35:00
3:55 AM,50.9,45.9,83,29.93,10.0,East,10.4,-,N/A,,Mostly Cloudy,80,2013-04-09 08:55:00
4:15 AM,50.5,46.0,85,29.94,10.0,East,6.9,-,N/A,,Scattered Clouds,90,2013-04-09 09:15:00
4:35 AM,51.6,46.4,82,29.94,10.0,East,9.2,-,N/A,,Mostly Cloudy,90,2013-04-09 09:35:00
4:55 AM,51.8,46.6,82,29.93,10.0,East,10.4,-,N/A,,Overcast,90,2013-04-09 09:55:00
5:15 AM,51.8,46.9,83,29.93,10.0,East,9.2,-,N/A,,Overcast,80,2013-04-09 10:15:00
5:35 AM,52.0,47.5,85,29.93,10.0,East,9.2,-,N/A,,Overcast,80,2013-04-09 10:35:00
5:55 AM,52.2,47.8,85,29.94,10.0,ENE,8.1,-,N/A,,Overcast,70,2013-04-09 10:55:00
6:15 AM,51.8,47.7,86,29.94,10.0,ENE,9.2,-,N/A,,Overcast,60,2013-04-09 11:15:00
6:35 AM,52.0,47.7,85,29.94,10.0,ENE,8.1,-,N/A,,Overcast,70,2013-04-09 11:35:00
6:55 AM,52.2,48.0,86,29.93,10.0,East,9.2,-,N/A,,Overcast,80,2013-04-09 11:55:00
7:15 AM,52.0,49.1,90,29.93,10.0,East,9.2,-,N/A,,Overcast,80,2013-04-09 12:15:00
7:35 AM,52.5,49.8,91,29.93,10.0,East,5.8,-,N/A,Rain,Light Rain,90,2013-04-09 12:35:00
7:55 AM,53.8,50.9,90,29.92,7.0,East,9.2,-,N/A,,Overcast,90,2013-04-09 12:55:00
8:15 AM,54.7,51.8,90,29.91,10.0,ESE,8.1,-,N/A,,Overcast,110,2013-04-09 13:15:00
8:35 AM,55.8,52.9,90,29.91,10.0,ESE,11.5,-,N/A,,Overcast,120,2013-04-09 13:35:00
8:55 AM,56.8,53.4,88,29.90,10.0,SE,10.4,-,N/A,,Overcast,130,2013-04-09 13:55:00
9:15 AM,57.6,53.8,87,29.90,10.0,SE,9.2,-,N/A,,Overcast,130,2013-04-09 14:15:00
9:35 AM,58.1,54.5,88,29.90,10.0,SE,8.1,-,N/A,,Overcast,130,2013-04-09 14:35:00
9:55 AM,59.4,55.8,88,29.89,10.0,SE,6.9,-,0.01,,Overcast,140,2013-04-09 14:55:00
10:15 AM,63.5,56.7,78,29.88,10.0,SSE,10.4,-,N/A,,Overcast,160,2013-04-09 15:15:00
10:35 AM,65.1,57.6,76,29.87,10.0,South,15.0,-,N/A,,Overcast,170,2013-04-09 15:35:00
10:55 AM,68.5,58.6,71,29.86,10.0,South,17.3,20.7,N/A,,Overcast,180,2013-04-09 15:55:00
11:15 AM,70.5,59.0,67,29.85,10.0,South,19.6,24.2,N/A,,Overcast,190,2013-04-09 16:15:00
11:35 AM,70.3,58.8,67,29.85,10.0,South,17.3,27.6,N/A,,Overcast,180,2013-04-09 16:35:00
11:55 AM,72.7,59.4,63,29.84,10.0,South,20.7,28.8,N/A,,Mostly Cloudy,190,2013-04-09 16:55:00
12:15 PM,75.2,59.2,57,29.83,10.0,South,20.7,32.2,N/A,,Mostly Cloudy,190,2013-04-09 17:15:00
12:35 PM,73.9,57.2,56,29.83,10.0,SSW,23.0,32.2,N/A,,Overcast,210,2013-04-09 17:35:00
12:55 PM,73.0,56.3,56,29.83,10.0,SSW,24.2,29.9,N/A,,Overcast,210,2013-04-09 17:55:00
1:15 PM,72.9,55.8,55,29.84,10.0,SSW,26.5,33.4,N/A,,Overcast,210,2013-04-09 18:15:00
1:35 PM,72.5,55.2,54,29.84,10.0,SW,20.7,33.4,N/A,,Overcast,220,2013-04-09 18:35:00
1:55 PM,72.9,56.7,57,29.84,10.0,SW,25.3,32.2,N/A,,Overcast,220,2013-04-09 18:55:00
2:15 PM,73.4,56.8,56,29.84,10.0,SW,17.3,-,N/A,,Overcast,220,2013-04-09 19:15:00
2:35 PM,75.6,55.0,49,29.84,10.0,SW,23.0,31.1,N/A,,Overcast,220,2013-04-09 19:35:00
2:55 PM,76.8,57.2,51,29.82,10.0,SSW,24.2,27.6,N/A,Thunderstorm,Overcast,210,2013-04-09 19:55:00
3:15 PM,76.1,56.7,51,29.82,10.0,SW,18.4,29.9,N/A,,Overcast,220,2013-04-09 20:15:00
3:35 PM,77.0,56.3,49,29.82,10.0,SW,26.5,32.2,N/A,,Overcast,220,2013-04-09 20:35:00
3:55 PM,77.2,56.7,49,29.81,10.0,SW,23.0,29.9,N/A,,Overcast,220,2013-04-09 20:55:00
4:15 PM,75.9,57.2,52,29.82,10.0,SW,21.9,31.1,N/A,,Overcast,220,2013-04-09 21:15:00
4:35 PM,75.2,57.2,53,29.82,10.0,SSW,21.9,28.8,N/A,,Overcast,210,2013-04-09 21:35:00
4:55 PM,75.4,57.9,54,29.83,10.0,SSW,20.7,26.5,N/A,,Overcast,210,2013-04-09 21:55:00
5:15 PM,74.5,58.1,57,29.84,10.0,SW,20.7,25.3,N/A,,Overcast,220,2013-04-09 22:15:00
5:35 PM,73.4,58.1,59,29.84,10.0,SSW,15.0,-,N/A,,Overcast,210,2013-04-09 22:35:00
5:55 PM,73.8,58.3,58,29.85,10.0,SSW,16.1,20.7,N/A,,Overcast,210,2013-04-09 22:55:00
6:15 PM,73.0,58.8,61,29.85,10.0,SSW,13.8,20.7,N/A,,Overcast,210,2013-04-09 23:15:00
6:35 PM,72.7,58.8,62,29.85,10.0,SSW,15.0,-,N/A,,Overcast,200,2013-04-09 23:35:00
6:55 PM,72.0,59.0,64,29.85,10.0,SSW,11.5,-,N/A,,Overcast,200,2013-04-09 23:55:00
7:15 PM,71.2,58.6,64,29.86,10.0,SSW,10.4,-,N/A,,Overcast,200,2013-04-10 00:15:00
7:35 PM,70.5,58.6,66,29.86,10.0,SSW,10.4,-,N/A,,Overcast,210,2013-04-10 00:35:00
7:55 PM,52.2,45.0,76,29.89,10.0,NNE,16.1,21.9,N/A,,Overcast,20,2013-04-10 00:55:00
8:15 PM,48.2,43.7,84,29.90,10.0,NNE,13.8,18.4,N/A,,Overcast,30,2013-04-10 01:15:00
8:35 PM,46.2,42.6,87,29.91,10.0,NNE,15.0,19.6,N/A,,Mostly Cloudy,30,2013-04-10 01:35:00
8:55 PM,45.5,42.8,90,29.91,10.0,NNE,12.7,-,N/A,,Mostly Cloudy,20,2013-04-10 01:55:00
9:15 PM,45.5,42.8,90,29.91,10.0,NE,9.2,17.3,N/A,,Overcast,40,2013-04-10 02:15:00
9:35 PM,46.4,42.8,87,29.92,10.0,NNE,15.0,-,N/A,,Mostly Cloudy,30,2013-04-10 02:35:00
9:55 PM,45.5,42.8,90,29.93,10.0,NNE,13.8,17.3,N/A,,Overcast,30,2013-04-10 02:55:00
10:15 PM,45.0,42.3,90,29.92,10.0,NE,11.5,-,N/A,,Overcast,40,2013-04-10 03:15:00
10:35 PM,44.6,42.3,91,29.90,7.0,NE,15.0,18.4,N/A,,Scattered Clouds,50,2013-04-10 03:35:00
10:55 PM,44.6,42.4,92,29.91,7.0,NE,10.4,17.3,N/A,,Scattered Clouds,50,2013-04-10 03:55:00
11:15 PM,45.0,42.8,92,29.92,7.0,NE,12.7,-,N/A,,Overcast,40,2013-04-10 04:15:00
11:35 PM,45.0,42.8,92,29.91,7.0,NE,10.4,18.4,N/A,,Overcast,40,2013-04-10 04:35:00
11:55 PM,45.0,43.0,93,29.90,7.0,NE,13.8,-,N/A,,Overcast,40,2013-04-10 04:55:00